Airfield :
LOGIN :

Register | Disclaimer

   EN    FR    IT 

 










Legend :    VFR   Marginal VFR   IFR   Intensive IFR   Very Intensive IFR
Visi :
Ceiling :
>= 8 km
>= 3000ft
5 to 8 km
1000 to 3000 ft
1500m to 5 km
500 to 1000 ft
800 to 1500m
200 to 500 ft
< 800m
< 200 ft
Symbols :   Thunderstorms  Fog  Heavy snow  Heavy precipitations  Wind > 20 kt
SIGMETs :     Misc.  Thunderstorms  Icing  Turbulence  Mountain Waves  Volcanic Ashes







- Airport Elevation : 55 ft
- Download approach charts


EGNO - Warton Preston

CURRENT METAR :
  • 161550Z 32009KT 290V350 9999 FEW029 15/09 Q1023

EXPIRED METARs :
  • 161520Z 32011KT 280V340 9999 FEW029 15/08 Q1023
  • 161450Z 32010KT 280V360 9999 FEW028 16/09 Q1023
  • 161420Z 32011KT 9999 FEW028 15/08 Q1023
  • 161350Z 32009KT 290V350 9999 FEW029 15/09 Q1023
  • 161320Z 32008KT 300V010 9999 FEW026 16/08 Q1023

TAF TAF EGNO
Valid from the 16 at 15:00 until the 16 at 18:00 UTC


161403Z 1615/1618 33007KT 9999 FEW025
ATIS : +44 1772 856 060
No reported NOTAMs for that airfield.



MET'MAP, your aeronautical weather chart ! - Copyright ORBIFLY December 2007 - Disclaimer

ORBIFLY MET'MAP TEAM :

Programming & Development : Alexandra Zaïnal
Concept & Development : Baudouin d'Aumeries
Co-Development & Prog : Marc-Olivier Méhu
Technical & hardware support : Manuel Goepfert

Contact : metmap@orbifly.com




SOURCES & CREDITS :

   NOAA